createdAt,value
2022-09-12T00:04:28.822Z,88.00
2022-09-12T00:09:32.163Z,88.50
2022-09-12T00:14:36.901Z,88.40
2022-09-12T00:19:40.406Z,88.60
2022-09-12T00:24:43.791Z,88.30
2022-09-12T00:29:48.403Z,88.00
2022-09-12T00:34:51.750Z,87.70
2022-09-12T00:39:55.352Z,87.10
2022-09-12T00:45:00.389Z,86.60
2022-09-12T00:50:08.545Z,87.20
2022-09-12T00:55:16.453Z,86.70
2022-09-12T01:00:23.459Z,86.40
2022-09-12T01:05:28.506Z,86.70
2022-09-12T01:10:32.594Z,86.10
2022-09-12T01:15:39.164Z,85.20
2022-09-12T01:20:52.369Z,84.50
2022-09-12T01:26:11.408Z,84.20
2022-09-12T01:31:21.451Z,84.70
2022-09-12T01:36:42.482Z,84.60
2022-09-12T01:41:55.893Z,84.70
2022-09-12T01:47:08.517Z,84.70
2022-09-12T01:52:19.505Z,84.60
2022-09-12T01:57:30.285Z,84.60
2022-09-12T02:02:39.674Z,84.40
2022-09-12T02:07:46.955Z,84.40
2022-09-12T02:12:54.118Z,84.50
2022-09-12T02:18:01.688Z,84.90
2022-09-12T02:23:08.933Z,85.50
2022-09-12T02:28:15.344Z,85.30
2022-09-12T02:33:26.771Z,85.10
2022-09-12T02:38:39.186Z,85.10
2022-09-12T02:43:42.621Z,84.40
2022-09-12T02:48:47.314Z,84.30
2022-09-12T02:53:51.090Z,84.40
2022-09-12T02:58:55.757Z,84.10
2022-09-12T03:04:21.809Z,84.30
2022-09-12T03:09:32.095Z,84.10
2022-09-12T03:15:01.727Z,84.20
2022-09-12T03:20:11.759Z,84.20
2022-09-12T03:25:19.124Z,83.90
2022-09-12T03:30:22.475Z,83.70
2022-09-12T03:35:27.285Z,83.70
2022-09-12T03:40:30.572Z,84.10
2022-09-12T03:45:34.096Z,84.00
2022-09-12T03:50:38.845Z,83.70
2022-09-12T03:55:42.455Z,84.10
2022-09-12T04:00:46.202Z,84.50
2022-09-12T04:05:51.523Z,84.40
2022-09-12T04:10:54.837Z,84.40
2022-09-12T04:15:58.585Z,84.60
2022-09-12T04:21:07.283Z,84.30
2022-09-12T04:26:11.539Z,84.30
2022-09-12T04:31:17.815Z,84.40
2022-09-12T04:36:22.887Z,84.70
2022-09-12T04:41:28.543Z,84.50
2022-09-12T04:46:33.615Z,84.20
2022-09-12T04:51:42.144Z,85.00
2022-09-12T04:56:47.324Z,85.00
2022-09-12T05:01:51.014Z,85.10
2022-09-12T05:06:55.759Z,84.90
2022-09-12T05:12:04.095Z,84.70
2022-09-12T05:17:08.686Z,85.00
2022-09-12T05:22:13.309Z,84.70
2022-09-12T05:27:16.651Z,85.20
2022-09-12T05:32:20.788Z,85.20
2022-09-12T05:37:25.668Z,85.20
2022-09-12T05:42:31.414Z,85.00
2022-09-12T05:47:34.958Z,84.80
2022-09-12T05:52:39.662Z,85.10
2022-09-12T05:57:45.836Z,84.80
2022-09-12T06:02:53.267Z,85.30
2022-09-12T06:07:58.009Z,84.60
2022-09-12T06:13:01.345Z,84.50
2022-09-12T06:18:04.856Z,84.10
2022-09-12T06:23:09.513Z,82.50
2022-09-12T06:28:12.862Z,82.20
2022-09-12T06:33:16.505Z,80.80
2022-09-12T06:38:21.181Z,81.20
2022-09-12T06:43:24.725Z,81.30
2022-09-12T06:48:28.687Z,81.10
2022-09-12T06:53:34.397Z,80.00
2022-09-12T06:58:38.722Z,78.90
2022-09-12T07:03:43.308Z,78.30
2022-09-12T07:08:48.754Z,77.30
2022-09-12T07:13:54.178Z,75.80
2022-09-12T07:18:59.561Z,74.70
2022-09-12T07:24:04.680Z,72.70
2022-09-12T07:29:34.749Z,72.30
2022-09-12T07:34:32.848Z,70.90
2022-09-12T07:39:37.918Z,70.40
2022-09-12T07:44:41.511Z,71.10
2022-09-12T07:49:45.169Z,71.00
2022-09-12T07:54:49.845Z,68.90
2022-09-12T07:59:53.566Z,69.10
2022-09-12T08:04:57.373Z,68.70
2022-09-12T08:10:02.297Z,68.40
2022-09-12T08:15:06.462Z,69.80
2022-09-12T08:20:10.405Z,67.60
2022-09-12T08:25:15.105Z,66.60
2022-09-12T08:30:18.929Z,65.40
2022-09-12T08:35:22.313Z,66.40
2022-09-12T08:40:27.094Z,66.70
2022-09-12T08:45:37.212Z,63.90
2022-09-12T08:50:49.227Z,64.10
2022-09-12T08:55:58.788Z,64.70
2022-09-12T09:01:08.394Z,63.30
2022-09-12T09:06:23.664Z,60.80
2022-09-12T09:11:58.709Z,62.40
2022-09-12T09:17:03.060Z,63.60
2022-09-12T09:22:12.141Z,61.40
2022-09-12T09:27:40.328Z,59.80
2022-09-12T09:32:47.981Z,60.30
2022-09-12T09:38:03.103Z,61.00
2022-09-12T09:43:20.632Z,64.60
2022-09-12T09:48:28.243Z,65.30
2022-09-12T09:53:38.357Z,65.00
2022-09-12T09:58:43.657Z,64.20
2022-09-12T10:03:52.394Z,64.00
2022-09-12T10:09:09.486Z,62.90
2022-09-12T10:14:35.108Z,62.80
2022-09-12T10:19:40.772Z,62.30
2022-09-12T10:24:49.959Z,61.30
2022-09-12T10:30:01.264Z,60.90
2022-09-12T10:35:09.061Z,59.60
2022-09-12T10:40:25.246Z,59.20
2022-09-12T10:45:32.477Z,59.20
2022-09-12T10:50:41.623Z,59.80
2022-09-12T10:55:59.644Z,57.90
2022-09-12T11:01:15.478Z,57.40
2022-09-12T11:06:27.198Z,58.10
2022-09-12T11:11:54.921Z,55.20
2022-09-12T11:17:13.737Z,56.40
2022-09-12T11:22:32.069Z,56.00
2022-09-12T11:27:50.740Z,53.50
2022-09-12T11:33:29.668Z,54.50
2022-09-12T11:38:57.487Z,51.50
2022-09-12T11:44:08.375Z,52.70
2022-09-12T11:49:23.691Z,52.00
2022-09-12T11:54:34.746Z,50.20
2022-09-12T11:59:45.965Z,51.80
2022-09-12T12:05:02.792Z,51.90
2022-09-12T12:10:09.776Z,50.00
2022-09-12T12:15:17.737Z,49.30
2022-09-12T12:20:21.395Z,49.20
2022-09-12T12:25:40.068Z,49.30
2022-09-12T12:31:03.079Z,50.10
2022-09-12T12:36:07.200Z,52.40
2022-09-12T12:41:46.512Z,53.10
2022-09-12T12:47:16.497Z,53.50
2022-09-12T12:52:20.524Z,53.70
2022-09-12T12:57:50.408Z,53.80
2022-09-12T13:02:57.981Z,52.60
2022-09-12T13:08:07.819Z,53.40
2022-09-12T13:13:24.690Z,54.00
2022-09-12T13:18:30.986Z,52.30
2022-09-12T13:23:35.206Z,51.90
2022-09-12T13:28:40.479Z,51.60
2022-09-12T13:33:47.231Z,50.20
2022-09-12T13:39:06.499Z,51.10
2022-09-12T13:44:15.991Z,51.60
2022-09-12T13:49:28.454Z,52.70
2022-09-12T13:54:33.545Z,52.70
2022-09-12T13:59:42.721Z,52.80
2022-09-12T14:05:05.730Z,53.40
2022-09-12T14:10:09.211Z,52.80
2022-09-12T14:15:22.268Z,53.00
2022-09-12T14:20:25.877Z,52.80
2022-09-12T14:25:39.063Z,53.20
2022-09-12T14:30:59.792Z,53.60
2022-09-12T14:36:24.100Z,53.10
2022-09-12T14:41:30.620Z,51.80
2022-09-12T14:46:37.072Z,52.30
2022-09-12T14:51:47.111Z,50.60
2022-09-12T14:56:56.981Z,51.50
2022-09-12T15:02:22.427Z,52.00
2022-09-12T15:07:34.706Z,52.50
2022-09-12T15:12:38.030Z,52.30
2022-09-12T15:17:43.052Z,51.10
2022-09-12T15:22:46.807Z,51.00
2022-09-12T15:27:53.777Z,51.20
2022-09-12T15:33:00.072Z,51.80
2022-09-12T15:38:03.460Z,51.90
2022-09-12T15:43:06.807Z,52.20
2022-09-12T15:48:11.855Z,52.70
2022-09-12T15:53:17.019Z,53.30
2022-09-12T15:58:20.694Z,53.90
2022-09-12T16:03:27.609Z,54.00
2022-09-12T16:08:32.954Z,54.20
2022-09-12T16:13:36.496Z,53.90
2022-09-12T16:18:42.292Z,54.00
2022-09-12T16:23:46.561Z,54.30
2022-09-12T16:28:56.173Z,55.00
2022-09-12T16:34:01.069Z,54.90
2022-09-12T16:39:04.565Z,55.10
2022-09-12T16:44:08.039Z,55.30
2022-09-12T16:49:13.058Z,55.60
2022-09-12T16:54:17.200Z,55.80
2022-09-12T16:59:20.537Z,56.10
2022-09-12T17:04:25.479Z,56.60
2022-09-12T17:09:29.450Z,56.70
2022-09-12T17:14:32.933Z,57.10
2022-09-12T17:19:37.911Z,57.30
2022-09-12T17:24:41.966Z,57.50
2022-09-12T17:29:45.604Z,58.00
2022-09-12T17:34:50.266Z,58.10
2022-09-12T17:39:53.753Z,57.70
2022-09-12T17:44:58.510Z,57.70
2022-09-12T17:50:30.004Z,58.60
2022-09-12T17:55:26.497Z,58.80
2022-09-12T18:00:44.951Z,58.80
2022-09-12T18:05:52.975Z,59.80
2022-09-12T18:11:05.079Z,59.80
2022-09-12T18:16:11.192Z,59.70
2022-09-12T18:21:16.116Z,60.20
2022-09-12T18:26:19.457Z,60.50
2022-09-12T18:31:25.495Z,60.80
2022-09-12T18:36:30.869Z,61.10
2022-09-12T18:41:34.537Z,61.40
2022-09-12T18:46:39.054Z,61.30
2022-09-12T18:51:44.550Z,61.20
2022-09-12T18:56:48.099Z,62.50
2022-09-12T19:01:51.550Z,61.80
2022-09-12T19:06:56.240Z,62.20
2022-09-12T19:11:59.548Z,62.30
2022-09-12T19:17:03.385Z,62.70
2022-09-12T19:22:08.465Z,62.70
2022-09-12T19:27:13.888Z,63.50
2022-09-12T19:32:17.245Z,63.20
2022-09-12T19:37:21.931Z,63.90
2022-09-12T19:42:25.359Z,63.60
2022-09-12T19:47:29.251Z,64.00
2022-09-12T19:52:34.154Z,63.80
2022-09-12T19:57:37.615Z,64.40
2022-09-12T20:02:40.984Z,64.50
2022-09-12T20:07:45.784Z,64.60
2022-09-12T20:12:49.178Z,64.50
2022-09-12T20:17:55.637Z,64.60
2022-09-12T20:23:00.443Z,65.00
2022-09-12T20:28:04.125Z,65.30
2022-09-12T20:33:07.473Z,65.90
2022-09-12T20:38:12.689Z,66.40
2022-09-12T20:43:16.126Z,66.70
2022-09-12T20:48:19.475Z,67.20
2022-09-12T20:53:24.419Z,67.50
2022-09-12T20:58:28.026Z,67.60
2022-09-12T21:03:31.508Z,68.60
2022-09-12T21:08:37.226Z,68.10
2022-09-12T21:13:40.994Z,67.90
2022-09-12T21:18:44.610Z,67.80
2022-09-12T21:23:50.738Z,68.50
2022-09-12T21:28:54.308Z,68.80
2022-09-12T21:33:57.876Z,69.60
2022-09-12T21:39:02.553Z,69.40
2022-09-12T21:44:06.006Z,68.50
2022-09-12T21:49:09.613Z,68.50
2022-09-12T21:54:14.452Z,68.80
2022-09-12T21:59:17.758Z,69.60
2022-09-12T22:04:21.048Z,69.60
2022-09-12T22:09:25.917Z,71.30
2022-09-12T22:14:29.708Z,70.60
2022-09-12T22:19:33.143Z,70.80
2022-09-12T22:24:38.200Z,71.00
2022-09-12T22:29:42.081Z,71.40
2022-09-12T22:34:45.894Z,71.50
2022-09-12T22:39:50.658Z,71.80
2022-09-12T22:44:54.025Z,71.50
2022-09-12T22:49:57.349Z,71.60
2022-09-12T22:55:02.271Z,71.90
2022-09-12T23:00:07.722Z,71.70
2022-09-12T23:05:11.689Z,72.40
2022-09-12T23:10:16.902Z,72.80
2022-09-12T23:15:20.232Z,72.70
2022-09-12T23:20:23.762Z,72.70
2022-09-12T23:25:28.537Z,73.60
2022-09-12T23:30:32.521Z,73.80
2022-09-12T23:35:36.698Z,73.80
2022-09-12T23:40:41.430Z,74.20
2022-09-12T23:45:44.790Z,74.10
2022-09-12T23:50:49.449Z,74.30
2022-09-12T23:55:54.449Z,74.50
